sensor_id;sensor_type;location;lat;lon;timestamp;P1;durP1;ratioP1;P2;durP2;ratioP2
3979;SDS011;2004;52.452;13.120;2023-07-31T00:01:48;1415.20;;;998.83;;
3979;SDS011;2004;52.452;13.120;2023-07-31T00:09:39;1433.57;;;999.90;;
3979;SDS011;2004;52.452;13.120;2023-07-31T00:17:29;1399.80;;;999.90;;
3979;SDS011;2004;52.452;13.120;2023-07-31T00:25:21;1402.17;;;999.90;;
3979;SDS011;2004;52.452;13.120;2023-07-31T00:33:11;1277.13;;;999.90;;
3979;SDS011;2004;52.452;13.120;2023-07-31T00:41:02;1401.27;;;999.90;;
3979;SDS011;2004;52.452;13.120;2023-07-31T00:48:53;1305.90;;;999.90;;
3979;SDS011;2004;52.452;13.120;2023-07-31T00:56:44;1129.80;;;966.90;;
3979;SDS011;2004;52.452;13.120;2023-07-31T01:04:36;1184.37;;;999.90;;
3979;SDS011;2004;52.452;13.120;2023-07-31T01:12:27;1014.40;;;853.50;;
3979;SDS011;2004;52.452;13.120;2023-07-31T01:20:23;1094.87;;;909.60;;
3979;SDS011;2004;52.452;13.120;2023-07-31T01:36:46;1428.73;;;999.90;;
3979;SDS011;2004;52.452;13.120;2023-07-31T01:44:38;1265.97;;;999.90;;
3979;SDS011;2004;52.452;13.120;2023-07-31T01:52:28;1397.40;;;999.90;;
3979;SDS011;2004;52.452;13.120;2023-07-31T02:00:21;1160.43;;;966.77;;
3979;SDS011;2004;52.452;13.120;2023-07-31T02:08:13;1141.60;;;922.13;;
3979;SDS011;2004;52.452;13.120;2023-07-31T02:16:04;1198.10;;;953.63;;
3979;SDS011;2004;52.452;13.120;2023-07-31T02:23:54;1271.80;;;984.10;;
3979;SDS011;2004;52.452;13.120;2023-07-31T02:31:45;960.97;;;808.63;;
3979;SDS011;2004;52.452;13.120;2023-07-31T02:39:36;1065.03;;;848.07;;
3979;SDS011;2004;52.452;13.120;2023-07-31T02:47:27;1063.23;;;863.70;;
3979;SDS011;2004;52.452;13.120;2023-07-31T02:55:17;1008.73;;;868.70;;
3979;SDS011;2004;52.452;13.120;2023-07-31T03:03:08;1132.93;;;928.57;;
3979;SDS011;2004;52.452;13.120;2023-07-31T03:10:58;1112.20;;;953.60;;
3979;SDS011;2004;52.452;13.120;2023-07-31T03:18:49;1061.43;;;908.67;;
3979;SDS011;2004;52.452;13.120;2023-07-31T03:26:40;1094.93;;;971.43;;
3979;SDS011;2004;52.452;13.120;2023-07-31T03:34:31;1085.87;;;916.17;;
3979;SDS011;2004;52.452;13.120;2023-07-31T03:42:23;1200.37;;;959.33;;
3979;SDS011;2004;52.452;13.120;2023-07-31T03:50:13;1138.87;;;944.07;;
3979;SDS011;2004;52.452;13.120;2023-07-31T03:58:04;1106.10;;;924.23;;
3979;SDS011;2004;52.452;13.120;2023-07-31T04:05:55;1147.43;;;911.00;;
3979;SDS011;2004;52.452;13.120;2023-07-31T04:13:46;1391.47;;;972.93;;
3979;SDS011;2004;52.452;13.120;2023-07-31T04:21:36;1504.77;;;999.80;;
3979;SDS011;2004;52.452;13.120;2023-07-31T04:29:27;1498.77;;;998.50;;
3979;SDS011;2004;52.452;13.120;2023-07-31T04:37:18;1553.63;;;999.90;;
3979;SDS011;2004;52.452;13.120;2023-07-31T04:45:08;1637.27;;;999.90;;
3979;SDS011;2004;52.452;13.120;2023-07-31T04:53:01;1460.50;;;991.57;;
3979;SDS011;2004;52.452;13.120;2023-07-31T05:00:51;1652.50;;;999.90;;
3979;SDS011;2004;52.452;13.120;2023-07-31T05:08:42;1430.30;;;965.37;;
3979;SDS011;2004;52.452;13.120;2023-07-31T05:16:32;1601.73;;;999.90;;
3979;SDS011;2004;52.452;13.120;2023-07-31T05:24:25;1413.43;;;957.63;;
3979;SDS011;2004;52.452;13.120;2023-07-31T05:32:15;1765.80;;;999.90;;
3979;SDS011;2004;52.452;13.120;2023-07-31T05:40:06;1596.53;;;999.90;;
3979;SDS011;2004;52.452;13.120;2023-07-31T05:47:57;1973.93;;;999.90;;
3979;SDS011;2004;52.452;13.120;2023-07-31T05:55:48;1404.70;;;999.90;;
3979;SDS011;2004;52.452;13.120;2023-07-31T06:03:39;1399.37;;;997.77;;
3979;SDS011;2004;52.452;13.120;2023-07-31T06:11:29;1932.80;;;999.90;;
3979;SDS011;2004;52.452;13.120;2023-07-31T06:19:20;1481.00;;;999.90;;
3979;SDS011;2004;52.452;13.120;2023-07-31T06:27:10;1564.43;;;999.90;;
3979;SDS011;2004;52.452;13.120;2023-07-31T06:35:01;1617.93;;;999.90;;
3979;SDS011;2004;52.452;13.120;2023-07-31T06:42:52;2086.93;;;999.90;;
3979;SDS011;2004;52.452;13.120;2023-07-31T06:50:42;1908.20;;;999.90;;
3979;SDS011;2004;52.452;13.120;2023-07-31T06:58:33;1975.83;;;999.90;;
3979;SDS011;2004;52.452;13.120;2023-07-31T07:06:23;1788.80;;;999.90;;
3979;SDS011;2004;52.452;13.120;2023-07-31T07:14:14;2083.93;;;999.90;;
3979;SDS011;2004;52.452;13.120;2023-07-31T07:22:05;1806.30;;;999.90;;
3979;SDS011;2004;52.452;13.120;2023-07-31T07:30:02;1952.40;;;999.90;;
3979;SDS011;2004;52.452;13.120;2023-07-31T07:37:55;1700.47;;;999.90;;
3979;SDS011;2004;52.452;13.120;2023-07-31T07:45:46;1705.53;;;999.90;;
3979;SDS011;2004;52.452;13.120;2023-07-31T07:53:38;1411.00;;;999.90;;
3979;SDS011;2004;52.452;13.120;2023-07-31T08:01:31;1400.87;;;954.23;;
3979;SDS011;2004;52.452;13.120;2023-07-31T08:09:22;1734.27;;;999.90;;
3979;SDS011;2004;52.452;13.120;2023-07-31T08:17:14;1908.40;;;999.90;;
3979;SDS011;2004;52.452;13.120;2023-07-31T08:25:05;1414.83;;;950.43;;
3979;SDS011;2004;52.452;13.120;2023-07-31T08:32:56;1352.07;;;970.03;;
3979;SDS011;2004;52.452;13.120;2023-07-31T08:40:47;991.73;;;838.60;;
3979;SDS011;2004;52.452;13.120;2023-07-31T08:48:38;1425.63;;;999.90;;
3979;SDS011;2004;52.452;13.120;2023-07-31T08:56:32;1356.07;;;948.50;;
3979;SDS011;2004;52.452;13.120;2023-07-31T09:04:23;1489.40;;;999.90;;
3979;SDS011;2004;52.452;13.120;2023-07-31T09:12:15;1248.13;;;935.73;;
3979;SDS011;2004;52.452;13.120;2023-07-31T09:20:13;1577.77;;;999.90;;
3979;SDS011;2004;52.452;13.120;2023-07-31T09:28:08;1587.73;;;999.90;;
3979;SDS011;2004;52.452;13.120;2023-07-31T09:35:59;1013.30;;;843.67;;
3979;SDS011;2004;52.452;13.120;2023-07-31T09:43:54;1788.30;;;999.90;;
3979;SDS011;2004;52.452;13.120;2023-07-31T09:51:46;1502.30;;;999.90;;
3979;SDS011;2004;52.452;13.120;2023-07-31T09:59:37;1727.07;;;999.90;;
3979;SDS011;2004;52.452;13.120;2023-07-31T10:07:27;1654.83;;;999.90;;
3979;SDS011;2004;52.452;13.120;2023-07-31T10:15:20;1313.93;;;950.47;;
3979;SDS011;2004;52.452;13.120;2023-07-31T10:23:11;2266.67;;;999.90;;
3979;SDS011;2004;52.452;13.120;2023-07-31T10:31:03;2266.67;;;999.90;;
3979;SDS011;2004;52.452;13.120;2023-07-31T10:38:58;2266.67;;;999.90;;
3979;SDS011;2004;52.452;13.120;2023-07-31T10:46:48;1681.67;;;999.90;;
3979;SDS011;2004;52.452;13.120;2023-07-31T10:54:39;1524.93;;;999.90;;
3979;SDS011;2004;52.452;13.120;2023-07-31T11:02:32;717.47;;;635.67;;
3979;SDS011;2004;52.452;13.120;2023-07-31T11:10:23;1137.90;;;898.00;;
3979;SDS011;2004;52.452;13.120;2023-07-31T11:18:16;842.40;;;757.03;;
3979;SDS011;2004;52.452;13.120;2023-07-31T11:26:07;934.63;;;838.67;;
3979;SDS011;2004;52.452;13.120;2023-07-31T11:34:05;979.87;;;881.93;;
3979;SDS011;2004;52.452;13.120;2023-07-31T11:41:59;1019.93;;;916.10;;
3979;SDS011;2004;52.452;13.120;2023-07-31T11:49:51;940.00;;;839.17;;
3979;SDS011;2004;52.452;13.120;2023-07-31T11:57:41;969.40;;;869.30;;
3979;SDS011;2004;52.452;13.120;2023-07-31T12:05:37;932.40;;;834.50;;
3979;SDS011;2004;52.452;13.120;2023-07-31T12:13:28;988.13;;;890.67;;
3979;SDS011;2004;52.452;13.120;2023-07-31T12:21:21;1040.90;;;939.40;;
3979;SDS011;2004;52.452;13.120;2023-07-31T12:29:12;922.97;;;832.10;;
3979;SDS011;2004;52.452;13.120;2023-07-31T12:37:05;974.70;;;874.37;;
3979;SDS011;2004;52.452;13.120;2023-07-31T12:44:56;769.00;;;695.63;;
3979;SDS011;2004;52.452;13.120;2023-07-31T12:52:47;937.40;;;843.20;;
3979;SDS011;2004;52.452;13.120;2023-07-31T13:00:37;954.73;;;857.33;;
3979;SDS011;2004;52.452;13.120;2023-07-31T13:08:28;1057.20;;;947.23;;
3979;SDS011;2004;52.452;13.120;2023-07-31T13:16:19;982.77;;;884.53;;
3979;SDS011;2004;52.452;13.120;2023-07-31T13:24:09;993.50;;;896.43;;
3979;SDS011;2004;52.452;13.120;2023-07-31T13:32:00;1016.63;;;914.37;;
3979;SDS011;2004;52.452;13.120;2023-07-31T13:39:51;1016.23;;;914.73;;
3979;SDS011;2004;52.452;13.120;2023-07-31T13:47:42;855.27;;;772.00;;
3979;SDS011;2004;52.452;13.120;2023-07-31T13:55:32;689.27;;;621.70;;
3979;SDS011;2004;52.452;13.120;2023-07-31T14:03:23;979.63;;;882.90;;
3979;SDS011;2004;52.452;13.120;2023-07-31T14:11:14;951.87;;;859.17;;
3979;SDS011;2004;52.452;13.120;2023-07-31T14:19:04;1001.90;;;901.27;;
3979;SDS011;2004;52.452;13.120;2023-07-31T14:26:55;645.20;;;585.00;;
3979;SDS011;2004;52.452;13.120;2023-07-31T14:34:48;658.97;;;595.83;;
3979;SDS011;2004;52.452;13.120;2023-07-31T14:42:39;702.00;;;638.80;;
3979;SDS011;2004;52.452;13.120;2023-07-31T14:50:30;647.73;;;588.50;;
3979;SDS011;2004;52.452;13.120;2023-07-31T14:58:20;628.43;;;570.57;;
3979;SDS011;2004;52.452;13.120;2023-07-31T15:06:11;776.00;;;702.70;;
3979;SDS011;2004;52.452;13.120;2023-07-31T15:14:02;853.97;;;774.70;;
3979;SDS011;2004;52.452;13.120;2023-07-31T15:21:54;916.03;;;830.97;;
3979;SDS011;2004;52.452;13.120;2023-07-31T15:29:44;862.20;;;780.03;;
3979;SDS011;2004;52.452;13.120;2023-07-31T15:37:38;875.60;;;786.20;;
3979;SDS011;2004;52.452;13.120;2023-07-31T15:45:28;860.00;;;773.10;;
3979;SDS011;2004;52.452;13.120;2023-07-31T15:53:20;1290.43;;;988.03;;
3979;SDS011;2004;52.452;13.120;2023-07-31T16:01:10;972.63;;;876.87;;
3979;SDS011;2004;52.452;13.120;2023-07-31T16:09:01;939.37;;;850.50;;
3979;SDS011;2004;52.452;13.120;2023-07-31T16:16:52;647.50;;;586.20;;
3979;SDS011;2004;52.452;13.120;2023-07-31T16:24:43;634.53;;;573.87;;
3979;SDS011;2004;52.452;13.120;2023-07-31T16:32:34;639.53;;;577.70;;
3979;SDS011;2004;52.452;13.120;2023-07-31T16:40:25;891.47;;;805.27;;
3979;SDS011;2004;52.452;13.120;2023-07-31T16:48:16;674.60;;;609.37;;
3979;SDS011;2004;52.452;13.120;2023-07-31T16:56:06;647.03;;;585.87;;
3979;SDS011;2004;52.452;13.120;2023-07-31T17:03:57;625.17;;;566.63;;
3979;SDS011;2004;52.452;13.120;2023-07-31T17:11:49;802.73;;;725.87;;
3979;SDS011;2004;52.452;13.120;2023-07-31T17:19:40;816.30;;;738.07;;
3979;SDS011;2004;52.452;13.120;2023-07-31T17:27:31;866.03;;;775.43;;
3979;SDS011;2004;52.452;13.120;2023-07-31T17:35:21;916.40;;;821.90;;
3979;SDS011;2004;52.452;13.120;2023-07-31T17:43:11;885.77;;;795.23;;
3979;SDS011;2004;52.452;13.120;2023-07-31T17:51:02;749.50;;;671.33;;
3979;SDS011;2004;52.452;13.120;2023-07-31T17:58:53;980.27;;;851.53;;
3979;SDS011;2004;52.452;13.120;2023-07-31T18:06:43;915.53;;;822.93;;
3979;SDS011;2004;52.452;13.120;2023-07-31T18:14:34;890.93;;;805.57;;
3979;SDS011;2004;52.452;13.120;2023-07-31T18:22:27;985.33;;;890.33;;
3979;SDS011;2004;52.452;13.120;2023-07-31T18:30:18;986.50;;;892.50;;
3979;SDS011;2004;52.452;13.120;2023-07-31T18:38:08;1009.53;;;912.90;;
3979;SDS011;2004;52.452;13.120;2023-07-31T18:45:59;996.80;;;897.97;;
3979;SDS011;2004;52.452;13.120;2023-07-31T18:53:49;1012.07;;;911.93;;
3979;SDS011;2004;52.452;13.120;2023-07-31T19:01:40;970.60;;;875.37;;
3979;SDS011;2004;52.452;13.120;2023-07-31T19:09:33;1002.90;;;904.30;;
3979;SDS011;2004;52.452;13.120;2023-07-31T19:17:26;1031.33;;;931.23;;
3979;SDS011;2004;52.452;13.120;2023-07-31T19:25:17;1010.07;;;908.80;;
3979;SDS011;2004;52.452;13.120;2023-07-31T19:33:08;928.03;;;840.13;;
3979;SDS011;2004;52.452;13.120;2023-07-31T19:40:59;788.33;;;714.47;;
3979;SDS011;2004;52.452;13.120;2023-07-31T19:48:53;846.53;;;767.70;;
3979;SDS011;2004;52.452;13.120;2023-07-31T19:56:43;896.63;;;811.57;;
3979;SDS011;2004;52.452;13.120;2023-07-31T20:04:34;544.60;;;487.83;;
3979;SDS011;2004;52.452;13.120;2023-07-31T20:12:26;752.83;;;682.77;;
3979;SDS011;2004;52.452;13.120;2023-07-31T20:20:18;808.60;;;734.93;;
3979;SDS011;2004;52.452;13.120;2023-07-31T20:28:09;839.77;;;759.27;;
3979;SDS011;2004;52.452;13.120;2023-07-31T20:35:59;926.57;;;833.03;;
3979;SDS011;2004;52.452;13.120;2023-07-31T20:43:51;833.07;;;748.13;;
3979;SDS011;2004;52.452;13.120;2023-07-31T20:51:41;674.70;;;602.53;;
3979;SDS011;2004;52.452;13.120;2023-07-31T20:59:33;654.10;;;583.53;;
3979;SDS011;2004;52.452;13.120;2023-07-31T21:07:24;978.97;;;770.83;;
3979;SDS011;2004;52.452;13.120;2023-07-31T21:15:14;996.53;;;817.27;;
3979;SDS011;2004;52.452;13.120;2023-07-31T21:23:05;783.83;;;703.40;;
3979;SDS011;2004;52.452;13.120;2023-07-31T21:30:58;800.43;;;671.33;;
3979;SDS011;2004;52.452;13.120;2023-07-31T21:38:57;817.07;;;733.93;;
3979;SDS011;2004;52.452;13.120;2023-07-31T21:46:48;1102.27;;;919.67;;
3979;SDS011;2004;52.452;13.120;2023-07-31T21:54:39;1071.27;;;891.27;;
3979;SDS011;2004;52.452;13.120;2023-07-31T22:02:29;816.30;;;735.60;;
3979;SDS011;2004;52.452;13.120;2023-07-31T22:10:20;743.93;;;669.70;;
3979;SDS011;2004;52.452;13.120;2023-07-31T22:18:12;747.63;;;674.53;;
3979;SDS011;2004;52.452;13.120;2023-07-31T22:26:02;905.10;;;805.50;;
3979;SDS011;2004;52.452;13.120;2023-07-31T22:33:53;1264.10;;;973.70;;
3979;SDS011;2004;52.452;13.120;2023-07-31T22:41:43;1198.23;;;903.73;;
3979;SDS011;2004;52.452;13.120;2023-07-31T22:49:34;1051.73;;;874.33;;
3979;SDS011;2004;52.452;13.120;2023-07-31T22:57:24;871.80;;;785.23;;
3979;SDS011;2004;52.452;13.120;2023-07-31T23:05:15;972.70;;;873.20;;
3979;SDS011;2004;52.452;13.120;2023-07-31T23:13:05;1426.10;;;999.90;;
3979;SDS011;2004;52.452;13.120;2023-07-31T23:20:56;1513.00;;;999.90;;
3979;SDS011;2004;52.452;13.120;2023-07-31T23:28:47;1661.40;;;999.90;;
3979;SDS011;2004;52.452;13.120;2023-07-31T23:36:37;1673.90;;;999.90;;
3979;SDS011;2004;52.452;13.120;2023-07-31T23:44:28;1439.27;;;999.90;;
3979;SDS011;2004;52.452;13.120;2023-07-31T23:52:19;1367.80;;;999.90;;
